Aviation Digital Data Service (ADDS)

Output produced by TAFs form (0443 UTC 28 July 2016)
found at http://www.aviationweather.gov/adds/tafs/
 
KAPA 280353Z 15011KT 10SM BKN220 24/11 A3023 RMK AO2 SLP155 T02440106
KAPA 280308Z 2803/2824 10010KT P6SM FEW110 BKN200 
     FM280500 13011KT P6SM FEW100 SCT200 
     FM280700 18011KT P6SM FEW120 SCT200 
     FM281200 VRB05KT P6SM FEW140 
     FM281500 35005KT P6SM FEW150 
     FM281900 03013KT P6SM FEW080 SCT140 
     FM282300 06012G20KT P6SM SCT080 BKN120